Airfield :
LOGIN :

Register | Disclaimer

   EN    FR    IT 

 










Legend :    VFR   Marginal VFR   IFR   Intensive IFR   Very Intensive IFR
Visi :
Ceiling :
>= 8 km
>= 3000ft
5 to 8 km
1000 to 3000 ft
1500m to 5 km
500 to 1000 ft
800 to 1500m
200 to 500 ft
< 800m
< 200 ft
Symbols :   Thunderstorms  Fog  Heavy snow  Heavy precipitations  Wind > 20 kt
SIGMETs :     Misc.  Thunderstorms  Icing  Turbulence  Mountain Waves  Volcanic Ashes







- Airport Elevation : 545 ft
- IATA code : PZY


LZPP - Piešťany

CURRENT METAR :
  • 212300Z AUTO 31005KT 9999 -RA SCT023/// OVC028/// 11/11 Q1017

EXPIRED METARs :
  • 212230Z AUTO 31005KT 8000 -RA BKN020/// 11/11 Q1016
  • 212200Z AUTO VRB01KT 8000 -RA FEW031/// BKN041/// BKN047/// 11/10 Q1016 REDZ
  • 212130Z AUTO 31003KT 9999 -RA OVC064/// 11/10 Q1016 REDZ
  • 212100Z AUTO 33004KT 9999 +DZ BKN079/// OVC094/// 11/10 Q1017
  • 212030Z AUTO 32008KT 9999 -RA FEW045/// SCT055/// OVC077/// 11/10 Q1017
  • 212000Z 32009KT 9999 -RA FEW025 OVC060 12/10 Q1017

TAF TAF LZPP
Valid from the 21 at 18:00 until the 22 at 03:00 UTC


211700Z 2118/2203 34012KT 9999 -RA SCT025 OVC060
PROB40
TEMPO 2118/2121 6000 RA BKN008 OVC025
BECMG 2121/2123 01007KT SCT014 OVC080
TEMPO 2123/2203 BKN007 OVC080
No reported NOTAMs for that airfield.



MET'MAP, your aeronautical weather chart ! - Copyright ORBIFLY December 2007 - Disclaimer

ORBIFLY MET'MAP TEAM :

Programming & Development : Alexandra Zaïnal
Concept & Development : Baudouin d'Aumeries
Co-Development & Prog : Marc-Olivier Méhu
Technical & hardware support : Manuel Goepfert

Contact : metmap@orbifly.com




SOURCES & CREDITS :

   NOAA